CPA506 VHHH-RJBB
Flight info
| Callsign | CPA506 |
|---|---|
| Flight time | 2h 54m |
| Altitude | 37000 |
| Route | DALOL V631 ENVAR M750 MADOG Y53 NIXOV |
| Aircraft | B77W/H-SDE1E2E3FGHIJ2J3J4J5M1RWXY/LB1D1 |
Departure
| Time | 2026-05-08 01:34 |
|---|---|
| Airport | Hong Kong International Airport (VHHH) |
Arrival
| Time | 2026-05-08 04:29 |
|---|---|
| Airport | Kansai International Airport (RJBB) |
| Time | Latitude | Longitude | Altitude | Speed | Heading |
|---|---|---|---|---|---|
| 2026-05-08 01:21 | 22.31684 | 113.93297 | 37 ft | 0 kts | 71° |
| 2026-05-08 01:26 | 22.31681 | 113.93288 | 37 ft | 4 kts | 70° |
| 2026-05-08 01:27 | 22.31673 | 113.93260 | 36 ft | 4 kts | 77° |
| 2026-05-08 01:27 | 22.31667 | 113.93236 | 34 ft | 2 kts | 77° |
| 2026-05-08 01:27 | 22.31665 | 113.93209 | 34 ft | 4 kts | 102° |
| 2026-05-08 01:27 | 22.31676 | 113.93184 | 34 ft | 4 kts | 128° |
| 2026-05-08 01:28 | 22.31687 | 113.93167 | 34 ft | 0 kts | 122° |
| 2026-05-08 01:29 | 22.31683 | 113.93172 | 36 ft | 6 kts | 132° |
| 2026-05-08 01:30 | 22.31595 | 113.93129 | 37 ft | 26 kts | 245° |
| 2026-05-08 01:30 | 22.31524 | 113.92873 | 37 ft | 43 kts | 257° |
| 2026-05-08 01:30 | 22.31531 | 113.92563 | 37 ft | 41 kts | 292° |
| 2026-05-08 01:30 | 22.31607 | 113.92283 | 37 ft | 38 kts | 262° |
| 2026-05-08 01:31 | 22.31531 | 113.92016 | 37 ft | 36 kts | 251° |
| 2026-05-08 01:31 | 22.31451 | 113.91766 | 37 ft | 34 kts | 251° |
| 2026-05-08 01:31 | 22.31371 | 113.91529 | 37 ft | 33 kts | 249° |
| 2026-05-08 01:31 | 22.31298 | 113.91305 | 37 ft | 31 kts | 251° |
| 2026-05-08 01:32 | 22.31231 | 113.91088 | 37 ft | 30 kts | 251° |
| 2026-05-08 01:32 | 22.31161 | 113.90876 | 37 ft | 30 kts | 249° |
| 2026-05-08 01:32 | 22.31091 | 113.90663 | 37 ft | 30 kts | 252° |
| 2026-05-08 01:32 | 22.31029 | 113.90449 | 37 ft | 30 kts | 250° |
| 2026-05-08 01:33 | 22.30958 | 113.90236 | 37 ft | 30 kts | 250° |
| 2026-05-08 01:33 | 22.30941 | 113.90017 | 37 ft | 30 kts | 281° |
| 2026-05-08 01:33 | 22.31071 | 113.89874 | 35 ft | 30 kts | 7° |
| 2026-05-08 01:33 | 22.31206 | 113.90156 | 35 ft | 77 kts | 71° |
| 2026-05-08 01:34 | 22.31472 | 113.90977 | 37 ft | 152 kts | 70° |
| 2026-05-08 01:34 | 22.31883 | 113.92229 | 226 ft | 190 kts | 70° |
| 2026-05-08 01:34 | 22.32318 | 113.93569 | 1016 ft | 191 kts | 70° |
| 2026-05-08 01:34 | 22.32749 | 113.94931 | 1832 ft | 193 kts | 70° |
| 2026-05-08 01:35 | 22.33194 | 113.96335 | 2427 ft | 204 kts | 69° |
| 2026-05-08 01:35 | 22.33588 | 113.97839 | 2843 ft | 221 kts | 81° |
| 2026-05-08 01:35 | 22.33617 | 113.98075 | 2886 ft | 225 kts | 83° |
| 2026-05-08 01:36 | 22.33700 | 113.99173 | 3181 ft | 232 kts | 83° |
| 2026-05-08 01:36 | 22.33953 | 114.00923 | 3812 ft | 239 kts | 78° |
| 2026-05-08 01:36 | 22.34263 | 114.02703 | 4552 ft | 242 kts | 79° |
| 2026-05-08 01:36 | 22.34357 | 114.04518 | 5235 ft | 245 kts | 99° |
| 2026-05-08 01:37 | 22.33794 | 114.06257 | 5919 ft | 248 kts | 123° |
| 2026-05-08 01:37 | 22.32647 | 114.07646 | 6631 ft | 249 kts | 145° |
| 2026-05-08 01:37 | 22.31101 | 114.08470 | 7312 ft | 249 kts | 167° |
| 2026-05-08 01:37 | 22.29385 | 114.08707 | 7985 ft | 250 kts | 179° |
| 2026-05-08 01:38 | 22.27634 | 114.08731 | 8671 ft | 253 kts | 181° |
| 2026-05-08 01:38 | 22.25864 | 114.08729 | 9384 ft | 255 kts | 181° |
| 2026-05-08 01:38 | 22.24081 | 114.08708 | 9914 ft | 268 kts | 182° |
| 2026-05-08 01:38 | 22.22131 | 114.08675 | 10167 ft | 290 kts | 182° |
| 2026-05-08 01:39 | 22.20016 | 114.08646 | 10337 ft | 317 kts | 182° |
| 2026-05-08 01:39 | 22.17742 | 114.08834 | 10462 ft | 341 kts | 165° |
| 2026-05-08 01:39 | 22.15576 | 114.10094 | 10640 ft | 369 kts | 138° |
| 2026-05-08 01:39 | 22.14050 | 114.12382 | 10999 ft | 383 kts | 117° |
| 2026-05-08 01:40 | 22.12895 | 114.15037 | 11527 ft | 396 kts | 115° |
| 2026-05-08 01:40 | 22.11722 | 114.17710 | 12283 ft | 402 kts | 116° |
| 2026-05-08 01:40 | 22.10470 | 114.20433 | 13207 ft | 407 kts | 117° |
| 2026-05-08 01:40 | 22.09178 | 114.23162 | 14029 ft | 412 kts | 118° |
| 2026-05-08 01:41 | 22.07762 | 114.25871 | 14645 ft | 416 kts | 127° |
| 2026-05-08 01:41 | 22.05971 | 114.28313 | 15110 ft | 419 kts | 127° |
| 2026-05-08 01:41 | 22.04576 | 114.31107 | 15663 ft | 429 kts | 110° |
| 2026-05-08 01:41 | 22.03702 | 114.34189 | 16425 ft | 432 kts | 106° |
| 2026-05-08 01:42 | 22.02846 | 114.37310 | 17175 ft | 436 kts | 107° |
| 2026-05-08 01:42 | 22.01918 | 114.40460 | 17898 ft | 442 kts | 108° |
| 2026-05-08 01:42 | 22.00927 | 114.43615 | 18553 ft | 447 kts | 109° |
| 2026-05-08 01:42 | 21.99895 | 114.46755 | 19152 ft | 451 kts | 110° |
| 2026-05-08 01:43 | 21.98819 | 114.49947 | 19790 ft | 455 kts | 110° |
| 2026-05-08 01:43 | 21.97724 | 114.53158 | 20433 ft | 458 kts | 110° |
| 2026-05-08 01:43 | 21.96614 | 114.56401 | 21066 ft | 462 kts | 110° |
| 2026-05-08 01:43 | 21.95493 | 114.59672 | 21662 ft | 466 kts | 110° |
| 2026-05-08 01:44 | 21.94366 | 114.62964 | 22257 ft | 470 kts | 110° |
| 2026-05-08 01:44 | 21.93231 | 114.66285 | 22834 ft | 474 kts | 110° |
| 2026-05-08 01:44 | 21.92084 | 114.69642 | 23408 ft | 478 kts | 110° |
| 2026-05-08 01:44 | 21.90930 | 114.73017 | 23899 ft | 482 kts | 110° |
| 2026-05-08 01:45 | 21.89768 | 114.76416 | 24365 ft | 485 kts | 110° |
| 2026-05-08 01:45 | 21.88995 | 114.78672 | 24681 ft | 487 kts | 110° |
| 2026-05-08 01:45 | 21.87436 | 114.83225 | 25308 ft | 491 kts | 110° |
| 2026-05-08 01:45 | 21.86251 | 114.86681 | 25761 ft | 494 kts | 110° |
| 2026-05-08 01:46 | 21.85056 | 114.90166 | 26194 ft | 497 kts | 110° |
| 2026-05-08 01:46 | 21.84261 | 114.92483 | 26489 ft | 499 kts | 110° |
| 2026-05-08 01:46 | 21.83054 | 114.95994 | 26916 ft | 502 kts | 110° |
| 2026-05-08 01:46 | 21.81824 | 114.99573 | 27349 ft | 505 kts | 110° |
| 2026-05-08 01:47 | 21.80618 | 115.03077 | 27767 ft | 507 kts | 110° |
| 2026-05-08 01:47 | 21.79390 | 115.06644 | 28191 ft | 509 kts | 110° |
| 2026-05-08 01:47 | 21.78153 | 115.10235 | 28576 ft | 512 kts | 110° |
| 2026-05-08 01:48 | 21.75733 | 115.17484 | 29276 ft | 517 kts | 105° |
| 2026-05-08 01:48 | 21.74893 | 115.21255 | 29591 ft | 520 kts | 99° |
| 2026-05-08 01:48 | 21.74362 | 115.25113 | 29918 ft | 521 kts | 95° |
| 2026-05-08 01:48 | 21.74159 | 115.29016 | 30214 ft | 522 kts | 89° |
| 2026-05-08 01:49 | 21.74175 | 115.32927 | 30566 ft | 521 kts | 88° |
| 2026-05-08 01:49 | 21.74213 | 115.36824 | 30916 ft | 521 kts | 88° |
| 2026-05-08 01:49 | 21.74240 | 115.40723 | 31258 ft | 521 kts | 88° |
| 2026-05-08 01:49 | 21.74247 | 115.44622 | 31624 ft | 521 kts | 88° |
| 2026-05-08 01:50 | 21.74239 | 115.48519 | 31994 ft | 521 kts | 89° |
| 2026-05-08 01:50 | 21.74223 | 115.52370 | 32351 ft | 521 kts | 89° |
| 2026-05-08 01:50 | 21.74207 | 115.56263 | 32721 ft | 520 kts | 89° |
| 2026-05-08 01:50 | 21.74192 | 115.60154 | 33084 ft | 520 kts | 88° |
| 2026-05-08 01:51 | 21.74179 | 115.64045 | 33448 ft | 520 kts | 88° |
| 2026-05-08 01:51 | 21.74280 | 115.67938 | 33779 ft | 519 kts | 83° |
| 2026-05-08 01:51 | 21.74759 | 115.71780 | 34083 ft | 518 kts | 77° |
| 2026-05-08 01:51 | 21.75554 | 115.75554 | 34398 ft | 515 kts | 71° |
| 2026-05-08 01:52 | 21.76646 | 115.79208 | 34748 ft | 512 kts | 69° |
| 2026-05-08 01:52 | 21.77779 | 115.82834 | 35091 ft | 511 kts | 68° |
| 2026-05-08 01:52 | 21.78914 | 115.86453 | 35414 ft | 510 kts | 68° |
| 2026-05-08 01:52 | 21.80043 | 115.90080 | 35728 ft | 510 kts | 68° |
| 2026-05-08 01:53 | 21.81159 | 115.93698 | 36029 ft | 509 kts | 68° |
| 2026-05-08 01:53 | 21.82264 | 115.97316 | 36342 ft | 509 kts | 68° |
| 2026-05-08 01:53 | 21.83352 | 116.00899 | 36605 ft | 509 kts | 68° |
| 2026-05-08 01:53 | 21.84448 | 116.04523 | 36883 ft | 509 kts | 68° |
| 2026-05-08 01:54 | 21.86653 | 116.11823 | 36988 ft | 516 kts | 68° |
| 2026-05-08 01:54 | 21.88873 | 116.19193 | 36999 ft | 516 kts | 68° |
| 2026-05-08 01:55 | 21.91071 | 116.26506 | 37002 ft | 514 kts | 68° |
| 2026-05-08 01:55 | 21.93268 | 116.33821 | 37000 ft | 513 kts | 68° |
| 2026-05-08 01:56 | 21.95462 | 116.41132 | 37001 ft | 512 kts | 68° |
| 2026-05-08 01:56 | 21.97648 | 116.48431 | 37003 ft | 512 kts | 68° |
| 2026-05-08 01:57 | 21.99834 | 116.55742 | 37004 ft | 512 kts | 68° |
| 2026-05-08 01:57 | 22.02022 | 116.63074 | 37002 ft | 513 kts | 68° |
| 2026-05-08 01:58 | 22.04208 | 116.70412 | 37006 ft | 515 kts | 68° |
| 2026-05-08 01:58 | 22.06382 | 116.77723 | 37009 ft | 517 kts | 68° |
| 2026-05-08 01:59 | 22.08577 | 116.85121 | 37007 ft | 518 kts | 68° |
| 2026-05-08 01:59 | 22.10769 | 116.92521 | 37003 ft | 519 kts | 69° |
| 2026-05-08 02:00 | 22.12965 | 116.99952 | 37003 ft | 519 kts | 69° |
| 2026-05-08 02:00 | 22.15152 | 117.07364 | 37005 ft | 518 kts | 69° |
| 2026-05-08 02:01 | 22.17322 | 117.14731 | 37002 ft | 518 kts | 69° |
| 2026-05-08 02:01 | 22.19498 | 117.22131 | 37002 ft | 517 kts | 69° |
| 2026-05-08 02:02 | 22.21668 | 117.29524 | 37002 ft | 516 kts | 69° |
| 2026-05-08 02:02 | 22.23834 | 117.36919 | 37006 ft | 516 kts | 69° |
| 2026-05-08 02:03 | 22.25998 | 117.44317 | 37001 ft | 516 kts | 69° |
| 2026-05-08 02:03 | 22.28158 | 117.51717 | 37008 ft | 516 kts | 69° |
| 2026-05-08 02:04 | 22.30295 | 117.59054 | 37003 ft | 515 kts | 69° |
| 2026-05-08 02:04 | 22.32444 | 117.66444 | 37002 ft | 515 kts | 69° |
| 2026-05-08 02:05 | 22.34587 | 117.73829 | 37002 ft | 514 kts | 69° |
| 2026-05-08 02:05 | 22.36726 | 117.81211 | 37002 ft | 514 kts | 69° |
| 2026-05-08 02:06 | 22.38848 | 117.88551 | 37003 ft | 514 kts | 69° |
| 2026-05-08 02:06 | 22.40977 | 117.95926 | 37017 ft | 514 kts | 69° |
| 2026-05-08 02:07 | 22.43110 | 118.03329 | 37006 ft | 516 kts | 69° |
| 2026-05-08 02:07 | 22.45233 | 118.10710 | 37012 ft | 518 kts | 69° |
| 2026-05-08 02:08 | 22.47365 | 118.18141 | 37008 ft | 518 kts | 69° |
| 2026-05-08 02:08 | 22.49498 | 118.25592 | 36997 ft | 519 kts | 69° |
| 2026-05-08 02:09 | 22.51632 | 118.33055 | 37000 ft | 519 kts | 69° |
| 2026-05-08 02:09 | 22.53760 | 118.40516 | 37001 ft | 518 kts | 69° |
| 2026-05-08 02:10 | 22.55908 | 118.47952 | 37003 ft | 516 kts | 66° |
| 2026-05-08 02:10 | 22.58816 | 118.54929 | 36999 ft | 508 kts | 56° |
| 2026-05-08 02:11 | 22.62537 | 118.61420 | 37010 ft | 506 kts | 53° |
| 2026-05-08 02:11 | 22.66279 | 118.67857 | 37005 ft | 506 kts | 54° |
| 2026-05-08 02:12 | 22.69995 | 118.74335 | 37002 ft | 506 kts | 54° |
| 2026-05-08 02:12 | 22.73683 | 118.80823 | 36999 ft | 506 kts | 54° |
| 2026-05-08 02:13 | 22.77370 | 118.87326 | 37005 ft | 506 kts | 54° |
| 2026-05-08 02:13 | 22.81054 | 118.93827 | 37014 ft | 506 kts | 54° |
| 2026-05-08 02:14 | 22.84721 | 119.00304 | 37008 ft | 507 kts | 54° |
| 2026-05-08 02:14 | 22.88411 | 119.06827 | 37006 ft | 508 kts | 54° |
| 2026-05-08 02:15 | 22.92101 | 119.13360 | 37003 ft | 508 kts | 54° |
| 2026-05-08 02:15 | 22.95794 | 119.19908 | 37010 ft | 508 kts | 54° |
| 2026-05-08 02:16 | 22.99487 | 119.26463 | 37006 ft | 508 kts | 54° |
| 2026-05-08 02:16 | 23.03153 | 119.32979 | 36998 ft | 509 kts | 54° |
| 2026-05-08 02:17 | 23.06838 | 119.39536 | 37003 ft | 509 kts | 54° |
| 2026-05-08 02:17 | 23.10524 | 119.46104 | 37018 ft | 508 kts | 54° |
| 2026-05-08 02:18 | 23.14206 | 119.52676 | 36995 ft | 508 kts | 54° |
| 2026-05-08 02:18 | 23.17885 | 119.59247 | 36992 ft | 508 kts | 54° |
| 2026-05-08 02:19 | 23.21555 | 119.65818 | 37008 ft | 508 kts | 54° |
| 2026-05-08 02:19 | 23.25198 | 119.72352 | 36998 ft | 508 kts | 54° |
| 2026-05-08 02:20 | 23.28860 | 119.78928 | 36996 ft | 508 kts | 54° |
| 2026-05-08 02:20 | 23.32526 | 119.85520 | 37000 ft | 509 kts | 54° |
| 2026-05-08 02:21 | 23.36364 | 119.91911 | 36993 ft | 504 kts | 47° |
| 2026-05-08 02:21 | 23.41072 | 119.97475 | 37007 ft | 497 kts | 38° |
| 2026-05-08 02:22 | 23.46141 | 120.02610 | 37005 ft | 498 kts | 38° |
| 2026-05-08 02:22 | 23.51207 | 120.07762 | 37011 ft | 499 kts | 38° |
| 2026-05-08 02:23 | 23.56263 | 120.12966 | 37011 ft | 500 kts | 38° |
| 2026-05-08 02:23 | 23.61278 | 120.18156 | 37012 ft | 500 kts | 38° |
| 2026-05-08 02:24 | 23.66321 | 120.23380 | 37020 ft | 500 kts | 38° |
| 2026-05-08 02:24 | 23.71370 | 120.28612 | 37016 ft | 501 kts | 38° |
| 2026-05-08 02:25 | 23.76429 | 120.33860 | 37021 ft | 501 kts | 38° |
| 2026-05-08 02:25 | 23.81487 | 120.39112 | 37015 ft | 502 kts | 38° |
| 2026-05-08 02:26 | 23.86554 | 120.44382 | 37019 ft | 501 kts | 39° |
| 2026-05-08 02:26 | 23.91572 | 120.49607 | 37015 ft | 502 kts | 39° |
| 2026-05-08 02:27 | 23.96617 | 120.54911 | 37020 ft | 502 kts | 39° |
| 2026-05-08 02:27 | 24.01645 | 120.60226 | 37033 ft | 502 kts | 39° |
| 2026-05-08 02:28 | 24.06669 | 120.65538 | 37035 ft | 502 kts | 39° |
| 2026-05-08 02:28 | 24.11665 | 120.70821 | 37052 ft | 503 kts | 39° |
| 2026-05-08 02:29 | 24.16708 | 120.76158 | 37058 ft | 504 kts | 39° |
| 2026-05-08 02:29 | 24.21762 | 120.81514 | 37052 ft | 506 kts | 39° |
| 2026-05-08 02:30 | 24.26831 | 120.86892 | 37056 ft | 507 kts | 39° |
| 2026-05-08 02:30 | 24.31877 | 120.92254 | 37066 ft | 508 kts | 39° |
| 2026-05-08 02:31 | 24.36952 | 120.97656 | 37063 ft | 509 kts | 39° |
| 2026-05-08 02:31 | 24.41992 | 121.03134 | 37046 ft | 511 kts | 43° |
| 2026-05-08 02:32 | 24.46494 | 121.09193 | 37078 ft | 513 kts | 47° |
| 2026-05-08 02:32 | 24.50891 | 121.15367 | 37070 ft | 513 kts | 47° |
| 2026-05-08 02:33 | 24.55315 | 121.21522 | 37069 ft | 514 kts | 46° |
| 2026-05-08 02:33 | 24.59020 | 121.26639 | 37075 ft | 514 kts | 46° |
| 2026-05-08 02:34 | 24.64197 | 121.33788 | 37060 ft | 514 kts | 47° |
| 2026-05-08 02:34 | 24.67927 | 121.38949 | 37072 ft | 514 kts | 47° |
| 2026-05-08 02:35 | 24.72353 | 121.45080 | 37052 ft | 514 kts | 46° |
| 2026-05-08 02:35 | 24.77496 | 121.52226 | 37050 ft | 507 kts | 47° |
| 2026-05-08 02:36 | 24.81175 | 121.57335 | 37038 ft | 509 kts | 46° |
| 2026-05-08 02:36 | 24.85560 | 121.63431 | 37033 ft | 511 kts | 47° |
| 2026-05-08 02:37 | 24.89981 | 121.69586 | 37025 ft | 512 kts | 46° |
| 2026-05-08 02:37 | 24.94585 | 121.75582 | 37038 ft | 511 kts | 44° |
| 2026-05-08 02:38 | 24.99297 | 121.81466 | 37028 ft | 513 kts | 44° |
| 2026-05-08 02:38 | 25.03953 | 121.87372 | 37045 ft | 513 kts | 44° |
| 2026-05-08 02:39 | 25.08619 | 121.93354 | 37041 ft | 514 kts | 44° |
| 2026-05-08 02:39 | 25.13292 | 121.99344 | 37050 ft | 514 kts | 44° |
| 2026-05-08 02:40 | 25.17917 | 122.05311 | 37042 ft | 514 kts | 45° |
| 2026-05-08 02:40 | 25.22561 | 122.11336 | 37037 ft | 513 kts | 45° |
| 2026-05-08 02:41 | 25.27182 | 122.17336 | 37040 ft | 513 kts | 45° |
| 2026-05-08 02:41 | 25.31803 | 122.23339 | 37034 ft | 512 kts | 45° |
| 2026-05-08 02:42 | 25.36429 | 122.29355 | 37040 ft | 512 kts | 45° |
| 2026-05-08 02:42 | 25.41044 | 122.35365 | 37034 ft | 513 kts | 45° |
| 2026-05-08 02:43 | 25.45635 | 122.41352 | 37046 ft | 513 kts | 45° |
| 2026-05-08 02:43 | 25.50255 | 122.47384 | 37034 ft | 513 kts | 45° |
| 2026-05-08 02:44 | 25.54891 | 122.53417 | 37052 ft | 513 kts | 45° |
| 2026-05-08 02:44 | 25.59526 | 122.59428 | 37045 ft | 513 kts | 45° |
| 2026-05-08 02:45 | 25.64165 | 122.65455 | 37036 ft | 513 kts | 45° |
| 2026-05-08 02:45 | 25.68791 | 122.71480 | 37045 ft | 513 kts | 45° |
| 2026-05-08 02:46 | 25.73416 | 122.77513 | 37041 ft | 513 kts | 45° |
| 2026-05-08 02:46 | 25.78019 | 122.83524 | 37048 ft | 514 kts | 45° |
| 2026-05-08 02:47 | 25.82653 | 122.89584 | 37054 ft | 515 kts | 45° |
| 2026-05-08 02:47 | 25.87299 | 122.95669 | 37038 ft | 516 kts | 45° |
| 2026-05-08 02:48 | 25.91924 | 123.01734 | 37047 ft | 516 kts | 45° |
| 2026-05-08 02:48 | 25.96574 | 123.07843 | 37067 ft | 519 kts | 45° |
| 2026-05-08 02:49 | 26.01250 | 123.13994 | 37034 ft | 521 kts | 45° |
| 2026-05-08 02:49 | 26.05907 | 123.20140 | 37043 ft | 519 kts | 45° |
| 2026-05-08 02:50 | 26.10546 | 123.26267 | 37048 ft | 517 kts | 45° |
| 2026-05-08 02:50 | 26.15150 | 123.32353 | 37050 ft | 517 kts | 44° |
| 2026-05-08 02:51 | 26.19784 | 123.38486 | 37054 ft | 516 kts | 45° |
| 2026-05-08 02:51 | 26.24405 | 123.44612 | 37054 ft | 516 kts | 45° |
| 2026-05-08 02:52 | 26.29030 | 123.50750 | 37058 ft | 517 kts | 45° |
| 2026-05-08 02:52 | 26.33662 | 123.56906 | 37070 ft | 521 kts | 44° |
| 2026-05-08 02:53 | 26.38303 | 123.63080 | 37053 ft | 523 kts | 44° |
| 2026-05-08 02:53 | 26.42964 | 123.69295 | 37063 ft | 522 kts | 44° |
| 2026-05-08 02:54 | 26.47621 | 123.75514 | 37060 ft | 521 kts | 44° |
| 2026-05-08 02:54 | 26.52271 | 123.81729 | 37078 ft | 521 kts | 44° |
| 2026-05-08 02:55 | 26.59212 | 123.91022 | 37062 ft | 521 kts | 44° |
| 2026-05-08 02:56 | 26.63856 | 123.97252 | 37061 ft | 522 kts | 44° |
| 2026-05-08 02:56 | 26.68517 | 124.03505 | 37060 ft | 522 kts | 44° |
| 2026-05-08 02:57 | 26.73184 | 124.09755 | 37064 ft | 523 kts | 44° |
| 2026-05-08 02:57 | 26.77826 | 124.15982 | 37072 ft | 523 kts | 44° |
| 2026-05-08 02:58 | 26.82492 | 124.22253 | 37064 ft | 524 kts | 45° |
| 2026-05-08 02:58 | 26.87131 | 124.28499 | 37065 ft | 524 kts | 45° |
| 2026-05-08 02:59 | 26.91793 | 124.34785 | 37077 ft | 525 kts | 44° |
| 2026-05-08 02:59 | 26.96472 | 124.41102 | 37069 ft | 526 kts | 44° |
| 2026-05-08 03:00 | 27.01150 | 124.47414 | 37072 ft | 525 kts | 44° |
| 2026-05-08 03:00 | 27.05800 | 124.53678 | 37108 ft | 525 kts | 44° |
| 2026-05-08 03:01 | 27.10491 | 124.60005 | 37077 ft | 527 kts | 44° |
| 2026-05-08 03:01 | 27.15173 | 124.66337 | 37059 ft | 527 kts | 44° |
| 2026-05-08 03:02 | 27.19848 | 124.72670 | 37059 ft | 526 kts | 44° |
| 2026-05-08 03:02 | 27.24518 | 124.79004 | 37110 ft | 528 kts | 45° |
| 2026-05-08 03:03 | 27.29208 | 124.85373 | 37070 ft | 528 kts | 45° |
| 2026-05-08 03:03 | 27.33848 | 124.91687 | 37075 ft | 527 kts | 45° |
| 2026-05-08 03:04 | 27.38515 | 124.98045 | 37073 ft | 526 kts | 45° |
| 2026-05-08 03:04 | 27.43189 | 125.04390 | 37095 ft | 526 kts | 44° |
| 2026-05-08 03:05 | 27.47885 | 125.10713 | 37087 ft | 527 kts | 44° |
| 2026-05-08 03:05 | 27.52558 | 125.17013 | 37084 ft | 527 kts | 44° |
| 2026-05-08 03:06 | 27.57252 | 125.23361 | 37089 ft | 527 kts | 44° |
| 2026-05-08 03:06 | 27.61963 | 125.29747 | 37099 ft | 529 kts | 44° |
| 2026-05-08 03:07 | 27.66647 | 125.36105 | 37094 ft | 530 kts | 44° |
| 2026-05-08 03:07 | 27.71363 | 125.42518 | 37082 ft | 530 kts | 44° |
| 2026-05-08 03:08 | 27.76069 | 125.48928 | 37086 ft | 529 kts | 44° |
| 2026-05-08 03:08 | 27.80770 | 125.55338 | 37095 ft | 529 kts | 44° |
| 2026-05-08 03:09 | 27.85462 | 125.61745 | 37086 ft | 529 kts | 45° |
| 2026-05-08 03:09 | 27.90143 | 125.68148 | 37084 ft | 529 kts | 45° |
| 2026-05-08 03:10 | 27.94797 | 125.74522 | 37121 ft | 528 kts | 45° |
| 2026-05-08 03:10 | 27.99483 | 125.80948 | 37085 ft | 530 kts | 45° |
| 2026-05-08 03:11 | 28.04173 | 125.87391 | 37087 ft | 531 kts | 45° |
| 2026-05-08 03:11 | 28.08868 | 125.93851 | 37097 ft | 531 kts | 45° |
| 2026-05-08 03:12 | 28.13572 | 126.00333 | 37086 ft | 533 kts | 45° |
| 2026-05-08 03:12 | 28.18286 | 126.06839 | 37082 ft | 534 kts | 45° |
| 2026-05-08 03:13 | 28.22976 | 126.13321 | 37090 ft | 535 kts | 45° |
| 2026-05-08 03:13 | 28.27692 | 126.19852 | 37093 ft | 534 kts | 45° |
| 2026-05-08 03:14 | 28.32411 | 126.26395 | 37098 ft | 536 kts | 45° |
| 2026-05-08 03:14 | 28.37140 | 126.32960 | 37091 ft | 537 kts | 45° |
| 2026-05-08 03:15 | 28.41841 | 126.39500 | 37091 ft | 536 kts | 45° |
| 2026-05-08 03:15 | 28.46564 | 126.46080 | 37088 ft | 536 kts | 45° |
| 2026-05-08 03:16 | 28.51273 | 126.52650 | 37101 ft | 535 kts | 45° |
| 2026-05-08 03:16 | 28.55942 | 126.59175 | 37097 ft | 534 kts | 45° |
| 2026-05-08 03:17 | 28.60628 | 126.65733 | 37092 ft | 534 kts | 45° |
| 2026-05-08 03:17 | 28.65324 | 126.72313 | 37099 ft | 535 kts | 45° |
| 2026-05-08 03:18 | 28.70001 | 126.78879 | 37104 ft | 537 kts | 45° |
| 2026-05-08 03:18 | 28.74705 | 126.85493 | 37097 ft | 538 kts | 45° |
| 2026-05-08 03:19 | 28.79419 | 126.92132 | 37093 ft | 539 kts | 45° |
| 2026-05-08 03:19 | 28.84142 | 126.98795 | 37097 ft | 540 kts | 45° |
| 2026-05-08 03:20 | 28.88870 | 127.05476 | 37086 ft | 541 kts | 45° |
| 2026-05-08 03:20 | 28.93566 | 127.12122 | 37119 ft | 541 kts | 45° |
| 2026-05-08 03:21 | 28.98303 | 127.18836 | 37094 ft | 542 kts | 46° |
| 2026-05-08 03:21 | 29.03030 | 127.25548 | 37088 ft | 543 kts | 46° |
| 2026-05-08 03:22 | 29.07761 | 127.32276 | 37092 ft | 543 kts | 46° |
| 2026-05-08 03:22 | 29.12491 | 127.39013 | 37098 ft | 543 kts | 46° |
| 2026-05-08 03:23 | 29.17233 | 127.45778 | 37091 ft | 544 kts | 46° |
| 2026-05-08 03:23 | 29.21940 | 127.52506 | 37088 ft | 543 kts | 46° |
| 2026-05-08 03:24 | 29.26666 | 127.59270 | 37108 ft | 543 kts | 46° |
| 2026-05-08 03:24 | 29.31392 | 127.66047 | 37086 ft | 544 kts | 46° |
| 2026-05-08 03:25 | 29.35321 | 127.71689 | 37067 ft | 544 kts | 46° |
| 2026-05-08 03:25 | 29.40806 | 127.79580 | 37087 ft | 543 kts | 46° |
| 2026-05-08 03:26 | 29.44723 | 127.85222 | 37085 ft | 544 kts | 47° |
| 2026-05-08 03:26 | 29.49438 | 127.92027 | 37079 ft | 544 kts | 47° |
| 2026-05-08 03:27 | 29.54147 | 127.98831 | 37078 ft | 544 kts | 46° |
| 2026-05-08 03:27 | 29.58863 | 128.05645 | 37079 ft | 545 kts | 47° |
| 2026-05-08 03:28 | 29.63587 | 128.12478 | 37075 ft | 546 kts | 47° |
| 2026-05-08 03:28 | 29.68306 | 128.19320 | 37065 ft | 546 kts | 47° |
| 2026-05-08 03:29 | 29.73029 | 128.26181 | 37089 ft | 547 kts | 47° |
| 2026-05-08 03:29 | 29.77724 | 128.33013 | 37085 ft | 547 kts | 47° |
| 2026-05-08 03:30 | 29.84810 | 128.43346 | 37066 ft | 548 kts | 47° |
| 2026-05-08 03:31 | 29.94257 | 128.57163 | 37073 ft | 549 kts | 47° |
| 2026-05-08 03:32 | 30.01352 | 128.67573 | 37061 ft | 550 kts | 47° |
| 2026-05-08 03:32 | 30.06047 | 128.74476 | 37072 ft | 549 kts | 47° |
| 2026-05-08 03:33 | 30.10761 | 128.81418 | 37068 ft | 549 kts | 47° |
| 2026-05-08 03:33 | 30.15473 | 128.88370 | 37066 ft | 549 kts | 47° |
| 2026-05-08 03:34 | 30.20174 | 128.95317 | 37071 ft | 549 kts | 47° |
| 2026-05-08 03:34 | 30.24858 | 129.02250 | 37067 ft | 549 kts | 47° |
| 2026-05-08 03:35 | 30.29577 | 129.09243 | 37061 ft | 549 kts | 47° |
| 2026-05-08 03:35 | 30.34242 | 129.16169 | 37066 ft | 549 kts | 47° |
| 2026-05-08 03:36 | 30.38938 | 129.23156 | 37059 ft | 550 kts | 47° |
| 2026-05-08 03:36 | 30.43649 | 129.30178 | 37058 ft | 550 kts | 47° |
| 2026-05-08 03:37 | 30.48345 | 129.37190 | 37054 ft | 551 kts | 48° |
| 2026-05-08 03:37 | 30.53012 | 129.44171 | 37057 ft | 551 kts | 48° |
| 2026-05-08 03:38 | 30.57710 | 129.51210 | 37053 ft | 552 kts | 48° |
| 2026-05-08 03:38 | 30.62413 | 129.58270 | 37027 ft | 553 kts | 48° |
| 2026-05-08 03:39 | 30.67114 | 129.65339 | 37062 ft | 553 kts | 48° |
| 2026-05-08 03:39 | 30.71788 | 129.72442 | 37043 ft | 554 kts | 49° |
| 2026-05-08 03:40 | 30.76423 | 129.79617 | 37046 ft | 555 kts | 49° |
| 2026-05-08 03:40 | 30.81034 | 129.86752 | 37036 ft | 555 kts | 49° |
| 2026-05-08 03:41 | 30.85673 | 129.93924 | 37058 ft | 555 kts | 49° |
| 2026-05-08 03:41 | 30.90318 | 130.01116 | 37044 ft | 556 kts | 49° |
| 2026-05-08 03:42 | 30.94967 | 130.08332 | 37029 ft | 555 kts | 49° |
| 2026-05-08 03:42 | 30.99574 | 130.15497 | 37029 ft | 555 kts | 49° |
| 2026-05-08 03:43 | 31.04209 | 130.22718 | 37033 ft | 556 kts | 49° |
| 2026-05-08 03:43 | 31.08844 | 130.29952 | 37015 ft | 556 kts | 49° |
| 2026-05-08 03:44 | 31.13467 | 130.37182 | 37024 ft | 556 kts | 49° |
| 2026-05-08 03:44 | 31.18094 | 130.44431 | 37015 ft | 557 kts | 49° |
| 2026-05-08 03:45 | 31.22693 | 130.51649 | 37008 ft | 557 kts | 50° |
| 2026-05-08 03:45 | 31.27315 | 130.58918 | 37013 ft | 559 kts | 50° |
| 2026-05-08 03:46 | 31.32011 | 130.66308 | 37013 ft | 572 kts | 50° |
| 2026-05-08 03:46 | 31.36785 | 130.73841 | 37011 ft | 579 kts | 50° |
| 2026-05-08 03:47 | 31.41583 | 130.81436 | 36996 ft | 579 kts | 50° |
| 2026-05-08 03:47 | 31.46327 | 130.88959 | 36994 ft | 577 kts | 50° |
| 2026-05-08 03:48 | 31.51089 | 130.96521 | 36976 ft | 575 kts | 50° |
| 2026-05-08 03:48 | 31.55834 | 131.04070 | 37000 ft | 574 kts | 50° |
| 2026-05-08 03:49 | 31.60582 | 131.11636 | 36967 ft | 574 kts | 50° |
| 2026-05-08 03:49 | 31.65317 | 131.19199 | 36968 ft | 575 kts | 50° |
| 2026-05-08 03:50 | 31.70019 | 131.26724 | 36927 ft | 576 kts | 50° |
| 2026-05-08 03:50 | 31.74762 | 131.34325 | 36903 ft | 577 kts | 50° |
| 2026-05-08 03:51 | 31.79503 | 131.41941 | 36913 ft | 578 kts | 50° |
| 2026-05-08 03:51 | 31.84253 | 131.49581 | 36892 ft | 579 kts | 50° |
| 2026-05-08 03:52 | 31.89001 | 131.57242 | 36880 ft | 579 kts | 50° |
| 2026-05-08 03:52 | 31.93752 | 131.64923 | 36916 ft | 580 kts | 50° |
| 2026-05-08 03:53 | 31.98500 | 131.72611 | 36921 ft | 581 kts | 50° |
| 2026-05-08 03:53 | 32.03247 | 131.80313 | 36914 ft | 581 kts | 50° |
| 2026-05-08 03:54 | 32.07963 | 131.87980 | 36936 ft | 581 kts | 50° |
| 2026-05-08 03:54 | 32.12706 | 131.95709 | 36929 ft | 582 kts | 50° |
| 2026-05-08 03:55 | 32.17445 | 132.03445 | 36955 ft | 582 kts | 50° |
| 2026-05-08 03:55 | 32.22186 | 132.11202 | 36928 ft | 583 kts | 50° |
| 2026-05-08 03:56 | 32.26932 | 132.18983 | 36915 ft | 583 kts | 50° |
| 2026-05-08 03:56 | 32.31668 | 132.26762 | 36934 ft | 583 kts | 50° |
| 2026-05-08 03:57 | 32.36377 | 132.34508 | 36921 ft | 583 kts | 50° |
| 2026-05-08 03:57 | 32.41107 | 132.42309 | 36932 ft | 583 kts | 50° |
| 2026-05-08 03:58 | 32.45847 | 132.50143 | 36919 ft | 583 kts | 50° |
| 2026-05-08 03:58 | 32.50568 | 132.57961 | 36917 ft | 583 kts | 50° |
| 2026-05-08 03:59 | 32.55257 | 132.65744 | 36927 ft | 584 kts | 51° |
| 2026-05-08 03:59 | 32.59987 | 132.73610 | 36913 ft | 584 kts | 51° |
| 2026-05-08 04:00 | 32.64696 | 132.81460 | 36913 ft | 584 kts | 51° |
| 2026-05-08 04:00 | 32.69401 | 132.89317 | 36914 ft | 584 kts | 51° |
| 2026-05-08 04:01 | 32.74081 | 132.97150 | 36912 ft | 584 kts | 51° |
| 2026-05-08 04:01 | 32.78781 | 133.05029 | 36883 ft | 584 kts | 51° |
| 2026-05-08 04:02 | 32.83479 | 133.12910 | 36907 ft | 584 kts | 51° |
| 2026-05-08 04:02 | 32.88177 | 133.20809 | 36934 ft | 584 kts | 51° |
| 2026-05-08 04:03 | 32.92870 | 133.28720 | 36893 ft | 584 kts | 51° |
| 2026-05-08 04:03 | 32.99861 | 133.40540 | 36928 ft | 584 kts | 51° |
| 2026-05-08 04:04 | 33.04550 | 133.48486 | 36876 ft | 585 kts | 51° |
| 2026-05-08 04:04 | 33.09219 | 133.56433 | 36885 ft | 584 kts | 51° |
| 2026-05-08 04:05 | 33.13878 | 133.64386 | 36860 ft | 585 kts | 52° |
| 2026-05-08 04:05 | 33.18531 | 133.72346 | 36871 ft | 584 kts | 52° |
| 2026-05-08 04:06 | 33.23177 | 133.80309 | 36892 ft | 585 kts | 52° |
| 2026-05-08 04:06 | 33.27802 | 133.88254 | 36861 ft | 584 kts | 52° |
| 2026-05-08 04:07 | 33.30115 | 133.92232 | 36517 ft | 586 kts | 52° |
| 2026-05-08 04:07 | 33.32458 | 133.96262 | 35830 ft | 588 kts | 52° |
| 2026-05-08 04:07 | 33.34790 | 134.00276 | 34831 ft | 590 kts | 53° |
| 2026-05-08 04:07 | 33.37145 | 134.04331 | 33840 ft | 592 kts | 53° |
| 2026-05-08 04:08 | 33.39461 | 134.08329 | 32988 ft | 589 kts | 53° |
| 2026-05-08 04:08 | 33.41806 | 134.12381 | 31637 ft | 595 kts | 53° |
| 2026-05-08 04:08 | 33.44167 | 134.16465 | 30640 ft | 595 kts | 53° |
| 2026-05-08 04:08 | 33.46513 | 134.20527 | 29771 ft | 591 kts | 53° |
| 2026-05-08 04:09 | 33.48838 | 134.24566 | 28842 ft | 584 kts | 53° |
| 2026-05-08 04:09 | 33.51116 | 134.28542 | 28178 ft | 574 kts | 53° |
| 2026-05-08 04:09 | 33.53352 | 134.32455 | 27522 ft | 566 kts | 53° |
| 2026-05-08 04:09 | 33.55579 | 134.36353 | 26907 ft | 560 kts | 53° |
| 2026-05-08 04:10 | 33.57741 | 134.40126 | 26284 ft | 550 kts | 52° |
| 2026-05-08 04:10 | 33.60227 | 134.43517 | 25624 ft | 535 kts | 35° |
| 2026-05-08 04:10 | 33.63244 | 134.45981 | 25048 ft | 517 kts | 21° |
| 2026-05-08 04:10 | 33.66525 | 134.47569 | 24417 ft | 499 kts | 7° |
| 2026-05-08 04:11 | 33.69857 | 134.48286 | 23885 ft | 479 kts | 360° |
| 2026-05-08 04:11 | 33.73149 | 134.48899 | 23328 ft | 476 kts | 1° |
| 2026-05-08 04:11 | 33.76406 | 134.49561 | 22655 ft | 473 kts | 1° |
| 2026-05-08 04:11 | 33.79634 | 134.50253 | 22052 ft | 469 kts | 2° |
| 2026-05-08 04:12 | 33.82846 | 134.50957 | 21429 ft | 467 kts | 2° |
| 2026-05-08 04:12 | 33.86034 | 134.51661 | 20801 ft | 465 kts | 2° |
| 2026-05-08 04:12 | 33.89191 | 134.52359 | 20086 ft | 465 kts | 3° |
| 2026-05-08 04:12 | 33.92363 | 134.53062 | 19481 ft | 463 kts | 3° |
| 2026-05-08 04:13 | 33.94679 | 134.53574 | 19026 ft | 462 kts | 3° |
| 2026-05-08 04:13 | 33.95995 | 134.53866 | 18770 ft | 461 kts | 3° |
| 2026-05-08 04:13 | 33.98084 | 134.54331 | 18361 ft | 460 kts | 3° |
| 2026-05-08 04:14 | 34.01222 | 134.55027 | 17742 ft | 457 kts | 3° |
| 2026-05-08 04:14 | 34.04341 | 134.55716 | 17088 ft | 454 kts | 3° |
| 2026-05-08 04:14 | 34.07444 | 134.56402 | 16445 ft | 450 kts | 4° |
| 2026-05-08 04:14 | 34.10497 | 134.57078 | 15891 ft | 446 kts | 4° |
| 2026-05-08 04:15 | 34.13536 | 134.57753 | 15337 ft | 441 kts | 4° |
| 2026-05-08 04:15 | 34.16511 | 134.58529 | 14743 ft | 435 kts | 13° |
| 2026-05-08 04:15 | 34.19221 | 134.60224 | 14177 ft | 445 kts | 33° |
| 2026-05-08 04:15 | 34.21381 | 134.62847 | 13620 ft | 445 kts | 49° |
| 2026-05-08 04:16 | 34.23274 | 134.65791 | 13115 ft | 444 kts | 50° |
| 2026-05-08 04:16 | 34.25216 | 134.68689 | 12588 ft | 441 kts | 48° |
| 2026-05-08 04:16 | 34.27169 | 134.71519 | 12096 ft | 434 kts | 48° |
| 2026-05-08 04:16 | 34.29094 | 134.74288 | 11672 ft | 427 kts | 48° |
| 2026-05-08 04:17 | 34.30992 | 134.77027 | 11149 ft | 423 kts | 48° |
| 2026-05-08 04:17 | 34.32847 | 134.79716 | 11038 ft | 407 kts | 48° |
| 2026-05-08 04:17 | 34.34626 | 134.82302 | 10950 ft | 392 kts | 48° |
| 2026-05-08 04:17 | 34.36342 | 134.84797 | 10851 ft | 379 kts | 48° |
| 2026-05-08 04:18 | 34.38005 | 134.87219 | 10760 ft | 367 kts | 48° |
| 2026-05-08 04:18 | 34.39590 | 134.89524 | 10685 ft | 354 kts | 48° |
| 2026-05-08 04:18 | 34.41154 | 134.91799 | 10608 ft | 342 kts | 48° |
| 2026-05-08 04:18 | 34.42655 | 134.93983 | 10495 ft | 332 kts | 48° |
| 2026-05-08 04:19 | 34.44092 | 134.96076 | 10362 ft | 323 kts | 48° |
| 2026-05-08 04:19 | 34.45518 | 134.98154 | 10120 ft | 319 kts | 48° |
| 2026-05-08 04:19 | 34.46936 | 135.00220 | 9793 ft | 317 kts | 48° |
| 2026-05-08 04:19 | 34.48342 | 135.02272 | 9528 ft | 315 kts | 49° |
| 2026-05-08 04:20 | 34.49738 | 135.04311 | 9302 ft | 313 kts | 49° |
| 2026-05-08 04:20 | 34.51129 | 135.06344 | 9041 ft | 312 kts | 49° |
| 2026-05-08 04:20 | 34.52510 | 135.08362 | 8796 ft | 309 kts | 49° |
| 2026-05-08 04:20 | 34.53879 | 135.10365 | 8482 ft | 308 kts | 49° |
| 2026-05-08 04:21 | 34.55222 | 135.12329 | 8303 ft | 305 kts | 49° |
| 2026-05-08 04:21 | 34.56570 | 135.14303 | 8199 ft | 302 kts | 49° |
| 2026-05-08 04:21 | 34.57908 | 135.16265 | 8064 ft | 302 kts | 49° |
| 2026-05-08 04:21 | 34.59248 | 135.18230 | 7960 ft | 302 kts | 49° |
| 2026-05-08 04:22 | 34.60383 | 135.20347 | 7619 ft | 300 kts | 71° |
| 2026-05-08 04:22 | 34.60650 | 135.22805 | 7392 ft | 286 kts | 95° |
| 2026-05-08 04:22 | 34.60578 | 135.25167 | 7331 ft | 273 kts | 95° |
| 2026-05-08 04:22 | 34.60529 | 135.27416 | 7215 ft | 261 kts | 95° |
| 2026-05-08 04:23 | 34.60484 | 135.29595 | 6872 ft | 257 kts | 95° |
| 2026-05-08 04:23 | 34.60438 | 135.31765 | 6486 ft | 256 kts | 94° |
| 2026-05-08 04:23 | 34.60389 | 135.33912 | 6113 ft | 251 kts | 97° |
| 2026-05-08 04:23 | 34.59916 | 135.35900 | 5561 ft | 245 kts | 127° |
| 2026-05-08 04:24 | 34.58774 | 135.37326 | 5099 ft | 235 kts | 152° |
| 2026-05-08 04:24 | 34.57355 | 135.38228 | 4736 ft | 226 kts | 166° |
| 2026-05-08 04:24 | 34.55872 | 135.38406 | 4211 ft | 209 kts | 202° |
| 2026-05-08 04:24 | 34.54678 | 135.37515 | 3666 ft | 199 kts | 220° |
| 2026-05-08 04:25 | 34.53460 | 135.36691 | 2992 ft | 198 kts | 218° |
| 2026-05-08 04:25 | 34.52406 | 135.35650 | 2377 ft | 191 kts | 227° |
| 2026-05-08 04:25 | 34.51407 | 135.34686 | 2115 ft | 179 kts | 218° |
| 2026-05-08 04:25 | 34.50335 | 135.34022 | 1917 ft | 165 kts | 212° |
| 2026-05-08 04:26 | 34.49353 | 135.33454 | 1725 ft | 150 kts | 212° |
| 2026-05-08 04:26 | 34.48554 | 135.32762 | 1472 ft | 138 kts | 233° |
| 2026-05-08 04:26 | 34.47890 | 135.31903 | 1299 ft | 141 kts | 231° |
| 2026-05-08 04:26 | 34.47209 | 135.31062 | 1099 ft | 138 kts | 234° |
| 2026-05-08 04:27 | 34.46610 | 135.30193 | 882 ft | 134 kts | 233° |
| 2026-05-08 04:27 | 34.46026 | 135.29314 | 703 ft | 133 kts | 233° |
| 2026-05-08 04:27 | 34.45421 | 135.28447 | 648 ft | 136 kts | 234° |
| 2026-05-08 04:27 | 34.44847 | 135.27548 | 483 ft | 134 kts | 233° |
| 2026-05-08 04:28 | 34.44280 | 135.26665 | 244 ft | 133 kts | 230° |
| 2026-05-08 04:28 | 34.43683 | 135.25826 | 52 ft | 134 kts | 231° |
| 2026-05-08 04:28 | 34.43109 | 135.24969 | 23 ft | 119 kts | 231° |
| 2026-05-08 04:28 | 34.42641 | 135.24272 | 20 ft | 95 kts | 231° |
| 2026-05-08 04:29 | 34.42290 | 135.23746 | 19 ft | 61 kts | 232° |
| 2026-05-08 04:29 | 34.42188 | 135.23433 | 19 ft | 34 kts | 262° |
| 2026-05-08 04:29 | 34.42235 | 135.23357 | 24 ft | 6 kts | 15° |
| 2026-05-08 04:29 | 34.42293 | 135.23414 | 25 ft | 24 kts | 51° |
| 2026-05-08 04:30 | 34.42465 | 135.23664 | 25 ft | 49 kts | 50° |
| 2026-05-08 04:30 | 34.42694 | 135.23998 | 26 ft | 41 kts | 50° |
| 2026-05-08 04:30 | 34.42876 | 135.24019 | 26 ft | 22 kts | 351° |
| 2026-05-08 04:30 | 34.42989 | 135.24128 | 26 ft | 22 kts | 50° |
| 2026-05-08 04:31 | 34.43085 | 135.24267 | 25 ft | 22 kts | 51° |
| 2026-05-08 04:31 | 34.43177 | 135.24408 | 25 ft | 22 kts | 51° |
| 2026-05-08 04:31 | 34.43263 | 135.24533 | 26 ft | 7 kts | 41° |
| 2026-05-08 04:31 | 34.43313 | 135.24522 | 28 ft | 8 kts | 336° |
| 2026-05-08 04:32 | 34.43330 | 135.24509 | 28 ft | 0 kts | 319° |
| 2026-05-08 04:32 | 34.43335 | 135.24505 | 27 ft | 1 kts | 319° |
| 2026-05-08 04:32 | 34.43338 | 135.24502 | 25 ft | 0 kts | 320° |